sensor_id;sensor_type;location;lat;lon;timestamp;temperature;humidity
66422;DHT22;53228;51.380;0.098;2024-01-07T00:01:16;2.10;99.90
66422;DHT22;53228;51.380;0.098;2024-01-07T00:03:44;2.10;99.90
66422;DHT22;53228;51.380;0.098;2024-01-07T00:06:12;2.00;99.90
66422;DHT22;53228;51.380;0.098;2024-01-07T00:08:40;2.00;99.90
66422;DHT22;53228;51.380;0.098;2024-01-07T00:11:07;2.10;99.90
66422;DHT22;53228;51.380;0.098;2024-01-07T00:13:36;2.10;99.90
66422;DHT22;53228;51.380;0.098;2024-01-07T00:16:04;2.10;99.90
66422;DHT22;53228;51.380;0.098;2024-01-07T00:18:31;2.10;99.90
66422;DHT22;53228;51.380;0.098;2024-01-07T00:20:59;2.20;99.90
66422;DHT22;53228;51.380;0.098;2024-01-07T00:23:27;2.20;99.90
66422;DHT22;53228;51.380;0.098;2024-01-07T00:25:54;2.20;99.90
66422;DHT22;53228;51.380;0.098;2024-01-07T00:28:22;2.20;99.90
66422;DHT22;53228;51.380;0.098;2024-01-07T00:30:50;2.20;99.90
66422;DHT22;53228;51.380;0.098;2024-01-07T00:33:18;2.10;99.90
66422;DHT22;53228;51.380;0.098;2024-01-07T00:35:45;2.10;99.90
66422;DHT22;53228;51.380;0.098;2024-01-07T00:38:13;2.00;99.90
66422;DHT22;53228;51.380;0.098;2024-01-07T00:40:43;2.00;99.90
66422;DHT22;53228;51.380;0.098;2024-01-07T00:43:10;1.90;99.90
66422;DHT22;53228;51.380;0.098;2024-01-07T00:45:38;1.80;99.90
66422;DHT22;53228;51.380;0.098;2024-01-07T00:48:06;1.70;99.90
66422;DHT22;53228;51.380;0.098;2024-01-07T00:50:34;1.70;99.90
66422;DHT22;53228;51.380;0.098;2024-01-07T00:53:02;1.60;99.90
66422;DHT22;53228;51.380;0.098;2024-01-07T00:55:30;1.60;99.90
66422;DHT22;53228;51.380;0.098;2024-01-07T00:57:58;1.60;99.90
66422;DHT22;53228;51.380;0.098;2024-01-07T01:00:26;1.70;99.90
66422;DHT22;53228;51.380;0.098;2024-01-07T01:02:55;1.70;99.90
66422;DHT22;53228;51.380;0.098;2024-01-07T01:05:23;1.70;99.90
66422;DHT22;53228;51.380;0.098;2024-01-07T01:07:51;1.80;99.90
66422;DHT22;53228;51.380;0.098;2024-01-07T01:10:19;1.80;99.90
66422;DHT22;53228;51.380;0.098;2024-01-07T01:12:47;1.60;99.90
66422;DHT22;53228;51.380;0.098;2024-01-07T01:15:15;1.90;99.90
66422;DHT22;53228;51.380;0.098;2024-01-07T01:17:45;1.90;99.90
66422;DHT22;53228;51.380;0.098;2024-01-07T01:20:13;1.80;99.90
66422;DHT22;53228;51.380;0.098;2024-01-07T01:22:41;1.80;99.90
66422;DHT22;53228;51.380;0.098;2024-01-07T01:25:09;1.80;99.90
66422;DHT22;53228;51.380;0.098;2024-01-07T01:27:38;1.80;99.90
66422;DHT22;53228;51.380;0.098;2024-01-07T01:30:06;1.80;99.90
66422;DHT22;53228;51.380;0.098;2024-01-07T01:32:34;1.70;99.90
66422;DHT22;53228;51.380;0.098;2024-01-07T01:35:01;1.60;99.90
66422;DHT22;53228;51.380;0.098;2024-01-07T01:37:29;1.60;99.90
66422;DHT22;53228;51.380;0.098;2024-01-07T01:40:00;1.50;99.90
66422;DHT22;53228;51.380;0.098;2024-01-07T01:42:27;1.40;99.90
66422;DHT22;53228;51.380;0.098;2024-01-07T01:44:55;1.30;99.90
66422;DHT22;53228;51.380;0.098;2024-01-07T01:47:30;1.30;99.90
66422;DHT22;53228;51.380;0.098;2024-01-07T01:49:58;1.30;99.90
66422;DHT22;53228;51.380;0.098;2024-01-07T01:52:27;1.20;99.90
66422;DHT22;53228;51.380;0.098;2024-01-07T01:54:55;1.20;99.90
66422;DHT22;53228;51.380;0.098;2024-01-07T01:57:24;1.20;99.90
66422;DHT22;53228;51.380;0.098;2024-01-07T01:59:56;1.10;99.90
66422;DHT22;53228;51.380;0.098;2024-01-07T02:02:32;1.00;99.90
66422;DHT22;53228;51.380;0.098;2024-01-07T02:05:03;1.00;99.90
66422;DHT22;53228;51.380;0.098;2024-01-07T02:07:31;1.00;99.90
66422;DHT22;53228;51.380;0.098;2024-01-07T02:09:59;0.90;99.90
66422;DHT22;53228;51.380;0.098;2024-01-07T02:12:27;0.80;99.90
66422;DHT22;53228;51.380;0.098;2024-01-07T02:14:55;0.90;99.90
66422;DHT22;53228;51.380;0.098;2024-01-07T02:17:23;0.90;99.90
66422;DHT22;53228;51.380;0.098;2024-01-07T02:19:51;0.90;99.90
66422;DHT22;53228;51.380;0.098;2024-01-07T02:22:19;1.00;99.90
66422;DHT22;53228;51.380;0.098;2024-01-07T02:24:47;1.10;99.90
66422;DHT22;53228;51.380;0.098;2024-01-07T02:27:14;1.10;99.90
66422;DHT22;53228;51.380;0.098;2024-01-07T02:29:42;1.80;99.90
66422;DHT22;53228;51.380;0.098;2024-01-07T02:32:10;1.20;99.90
66422;DHT22;53228;51.380;0.098;2024-01-07T02:34:37;1.30;99.90
66422;DHT22;53228;51.380;0.098;2024-01-07T02:37:05;1.40;99.90
66422;DHT22;53228;51.380;0.098;2024-01-07T02:39:33;1.40;99.90
66422;DHT22;53228;51.380;0.098;2024-01-07T02:42:01;1.40;99.90
66422;DHT22;53228;51.380;0.098;2024-01-07T02:44:29;1.50;99.90
66422;DHT22;53228;51.380;0.098;2024-01-07T02:46:57;1.60;99.90
66422;DHT22;53228;51.380;0.098;2024-01-07T02:49:24;1.60;99.90
66422;DHT22;53228;51.380;0.098;2024-01-07T02:51:52;1.60;99.90
66422;DHT22;53228;51.380;0.098;2024-01-07T02:54:20;1.70;99.90
66422;DHT22;53228;51.380;0.098;2024-01-07T02:56:48;1.70;99.90
66422;DHT22;53228;51.380;0.098;2024-01-07T02:59:15;1.70;99.90
66422;DHT22;53228;51.380;0.098;2024-01-07T03:01:43;1.80;99.90
66422;DHT22;53228;51.380;0.098;2024-01-07T03:04:13;1.80;99.90
66422;DHT22;53228;51.380;0.098;2024-01-07T03:06:41;1.80;99.90
66422;DHT22;53228;51.380;0.098;2024-01-07T03:09:09;1.80;99.90
66422;DHT22;53228;51.380;0.098;2024-01-07T03:11:40;1.90;99.90
66422;DHT22;53228;51.380;0.098;2024-01-07T03:14:11;1.90;99.90
66422;DHT22;53228;51.380;0.098;2024-01-07T03:16:39;1.90;99.90
66422;DHT22;53228;51.380;0.098;2024-01-07T03:19:06;2.00;99.90
66422;DHT22;53228;51.380;0.098;2024-01-07T03:21:34;2.00;99.90
66422;DHT22;53228;51.380;0.098;2024-01-07T03:24:02;2.00;99.90
66422;DHT22;53228;51.380;0.098;2024-01-07T03:26:30;2.10;99.90
66422;DHT22;53228;51.380;0.098;2024-01-07T03:29:01;2.10;99.90
66422;DHT22;53228;51.380;0.098;2024-01-07T03:31:29;2.10;99.90
66422;DHT22;53228;51.380;0.098;2024-01-07T03:33:58;2.20;99.90
66422;DHT22;53228;51.380;0.098;2024-01-07T03:36:26;2.20;99.90
66422;DHT22;53228;51.380;0.098;2024-01-07T03:38:53;2.20;99.90
66422;DHT22;53228;51.380;0.098;2024-01-07T03:41:21;2.20;99.90
66422;DHT22;53228;51.380;0.098;2024-01-07T03:43:49;2.30;99.90
66422;DHT22;53228;51.380;0.098;2024-01-07T03:46:17;2.30;99.90
66422;DHT22;53228;51.380;0.098;2024-01-07T03:48:45;2.40;99.90
66422;DHT22;53228;51.380;0.098;2024-01-07T03:51:13;2.40;99.90
66422;DHT22;53228;51.380;0.098;2024-01-07T03:53:41;2.40;99.90
66422;DHT22;53228;51.380;0.098;2024-01-07T03:56:08;2.40;99.90
66422;DHT22;53228;51.380;0.098;2024-01-07T03:58:36;2.40;99.90
66422;DHT22;53228;51.380;0.098;2024-01-07T04:01:04;2.40;99.90
66422;DHT22;53228;51.380;0.098;2024-01-07T04:03:32;2.40;99.90
66422;DHT22;53228;51.380;0.098;2024-01-07T04:06:00;2.40;99.90
66422;DHT22;53228;51.380;0.098;2024-01-07T04:08:28;2.50;99.90
66422;DHT22;53228;51.380;0.098;2024-01-07T04:10:56;2.50;99.90
66422;DHT22;53228;51.380;0.098;2024-01-07T04:13:23;2.50;99.90
66422;DHT22;53228;51.380;0.098;2024-01-07T04:15:51;2.50;99.90
66422;DHT22;53228;51.380;0.098;2024-01-07T04:18:19;2.50;99.90
66422;DHT22;53228;51.380;0.098;2024-01-07T04:20:47;2.60;99.90
66422;DHT22;53228;51.380;0.098;2024-01-07T04:23:14;2.60;99.90
66422;DHT22;53228;51.380;0.098;2024-01-07T04:25:42;2.60;99.90
66422;DHT22;53228;51.380;0.098;2024-01-07T04:28:11;2.60;99.90
66422;DHT22;53228;51.380;0.098;2024-01-07T04:30:39;2.60;99.90
66422;DHT22;53228;51.380;0.098;2024-01-07T04:33:07;2.60;99.90
66422;DHT22;53228;51.380;0.098;2024-01-07T04:35:35;2.60;99.90
66422;DHT22;53228;51.380;0.098;2024-01-07T04:38:03;2.60;99.90
66422;DHT22;53228;51.380;0.098;2024-01-07T04:40:31;2.60;99.90
66422;DHT22;53228;51.380;0.098;2024-01-07T04:42:58;2.60;99.90
66422;DHT22;53228;51.380;0.098;2024-01-07T04:45:26;2.60;99.90
66422;DHT22;53228;51.380;0.098;2024-01-07T04:47:54;2.60;99.90
66422;DHT22;53228;51.380;0.098;2024-01-07T04:50:21;2.50;99.90
66422;DHT22;53228;51.380;0.098;2024-01-07T04:52:50;2.60;99.90
66422;DHT22;53228;51.380;0.098;2024-01-07T04:55:18;2.60;99.90
66422;DHT22;53228;51.380;0.098;2024-01-07T04:57:46;2.60;99.90
66422;DHT22;53228;51.380;0.098;2024-01-07T05:00:14;2.60;99.90
66422;DHT22;53228;51.380;0.098;2024-01-07T05:02:42;2.60;99.90
66422;DHT22;53228;51.380;0.098;2024-01-07T05:05:10;2.60;99.90
66422;DHT22;53228;51.380;0.098;2024-01-07T05:07:38;2.60;99.90
66422;DHT22;53228;51.380;0.098;2024-01-07T05:10:06;2.60;99.90
66422;DHT22;53228;51.380;0.098;2024-01-07T05:12:34;2.60;99.90
66422;DHT22;53228;51.380;0.098;2024-01-07T05:15:01;2.60;99.90
66422;DHT22;53228;51.380;0.098;2024-01-07T05:17:30;2.60;99.90
66422;DHT22;53228;51.380;0.098;2024-01-07T05:19:58;2.70;99.90
66422;DHT22;53228;51.380;0.098;2024-01-07T05:22:25;2.70;99.90
66422;DHT22;53228;51.380;0.098;2024-01-07T05:24:53;2.70;99.90
66422;DHT22;53228;51.380;0.098;2024-01-07T05:27:21;2.80;99.90
66422;DHT22;53228;51.380;0.098;2024-01-07T05:29:48;2.80;99.90
66422;DHT22;53228;51.380;0.098;2024-01-07T05:32:17;2.80;99.90
66422;DHT22;53228;51.380;0.098;2024-01-07T05:34:44;2.90;99.90
66422;DHT22;53228;51.380;0.098;2024-01-07T05:37:12;2.90;99.90
66422;DHT22;53228;51.380;0.098;2024-01-07T05:39:40;2.90;99.90
66422;DHT22;53228;51.380;0.098;2024-01-07T05:42:07;2.90;99.90
66422;DHT22;53228;51.380;0.098;2024-01-07T05:44:35;2.90;99.90
66422;DHT22;53228;51.380;0.098;2024-01-07T05:47:03;2.90;99.90
66422;DHT22;53228;51.380;0.098;2024-01-07T05:49:31;2.90;99.90
66422;DHT22;53228;51.380;0.098;2024-01-07T05:51:59;3.00;99.90
66422;DHT22;53228;51.380;0.098;2024-01-07T05:54:27;3.00;99.90
66422;DHT22;53228;51.380;0.098;2024-01-07T05:56:58;3.00;99.90
66422;DHT22;53228;51.380;0.098;2024-01-07T05:59:26;2.90;99.90
66422;DHT22;53228;51.380;0.098;2024-01-07T06:01:58;2.80;99.90
66422;DHT22;53228;51.380;0.098;2024-01-07T06:04:27;2.70;99.90
66422;DHT22;53228;51.380;0.098;2024-01-07T06:06:55;2.60;99.90
66422;DHT22;53228;51.380;0.098;2024-01-07T06:09:23;2.50;99.90
66422;DHT22;53228;51.380;0.098;2024-01-07T06:11:50;2.40;99.90
66422;DHT22;53228;51.380;0.098;2024-01-07T06:14:18;2.30;99.90
66422;DHT22;53228;51.380;0.098;2024-01-07T06:16:45;2.20;99.90
66422;DHT22;53228;51.380;0.098;2024-01-07T06:19:13;2.10;99.90
66422;DHT22;53228;51.380;0.098;2024-01-07T06:21:42;2.00;99.90
66422;DHT22;53228;51.380;0.098;2024-01-07T06:24:10;1.70;99.90
66422;DHT22;53228;51.380;0.098;2024-01-07T06:26:38;1.80;99.90
66422;DHT22;53228;51.380;0.098;2024-01-07T06:29:08;1.80;99.90
66422;DHT22;53228;51.380;0.098;2024-01-07T06:31:43;1.70;99.90
66422;DHT22;53228;51.380;0.098;2024-01-07T06:34:12;1.70;99.90
66422;DHT22;53228;51.380;0.098;2024-01-07T06:36:43;1.70;99.90
66422;DHT22;53228;51.380;0.098;2024-01-07T06:39:10;1.30;99.90
66422;DHT22;53228;51.380;0.098;2024-01-07T06:41:38;1.60;99.90
66422;DHT22;53228;51.380;0.098;2024-01-07T06:44:06;1.60;99.90
66422;DHT22;53228;51.380;0.098;2024-01-07T06:46:33;1.60;99.90
66422;DHT22;53228;51.380;0.098;2024-01-07T06:49:04;1.50;99.90
66422;DHT22;53228;51.380;0.098;2024-01-07T06:51:31;1.60;99.90
66422;DHT22;53228;51.380;0.098;2024-01-07T06:53:59;1.60;99.90
66422;DHT22;53228;51.380;0.098;2024-01-07T06:56:27;1.60;99.90
66422;DHT22;53228;51.380;0.098;2024-01-07T06:58:54;1.60;99.90
66422;DHT22;53228;51.380;0.098;2024-01-07T07:01:22;1.70;99.90
66422;DHT22;53228;51.380;0.098;2024-01-07T07:03:51;1.60;99.90
66422;DHT22;53228;51.380;0.098;2024-01-07T07:06:19;1.70;99.90
66422;DHT22;53228;51.380;0.098;2024-01-07T07:08:46;1.80;99.90
66422;DHT22;53228;51.380;0.098;2024-01-07T07:11:14;1.80;99.90
66422;DHT22;53228;51.380;0.098;2024-01-07T07:13:42;1.80;99.90
66422;DHT22;53228;51.380;0.098;2024-01-07T07:16:09;1.90;99.90
66422;DHT22;53228;51.380;0.098;2024-01-07T07:18:37;1.90;99.90
66422;DHT22;53228;51.380;0.098;2024-01-07T07:21:05;1.90;99.90
66422;DHT22;53228;51.380;0.098;2024-01-07T07:23:33;1.90;99.90
66422;DHT22;53228;51.380;0.098;2024-01-07T07:26:01;2.00;99.90
66422;DHT22;53228;51.380;0.098;2024-01-07T07:28:29;2.00;99.90
66422;DHT22;53228;51.380;0.098;2024-01-07T07:30:56;2.00;99.90
66422;DHT22;53228;51.380;0.098;2024-01-07T07:33:24;2.00;99.90
66422;DHT22;53228;51.380;0.098;2024-01-07T07:35:52;2.00;99.90
66422;DHT22;53228;51.380;0.098;2024-01-07T07:38:19;2.00;99.90
66422;DHT22;53228;51.380;0.098;2024-01-07T07:40:47;2.00;99.90
66422;DHT22;53228;51.380;0.098;2024-01-07T07:43:20;2.00;99.90
66422;DHT22;53228;51.380;0.098;2024-01-07T07:45:48;2.10;99.90
66422;DHT22;53228;51.380;0.098;2024-01-07T07:48:16;2.10;99.90
66422;DHT22;53228;51.380;0.098;2024-01-07T07:50:44;2.10;99.90
66422;DHT22;53228;51.380;0.098;2024-01-07T07:53:12;2.10;99.90
66422;DHT22;53228;51.380;0.098;2024-01-07T07:55:39;2.20;99.90
66422;DHT22;53228;51.380;0.098;2024-01-07T07:58:07;2.20;99.90
66422;DHT22;53228;51.380;0.098;2024-01-07T08:00:35;2.30;99.90
66422;DHT22;53228;51.380;0.098;2024-01-07T08:03:03;2.30;99.90
66422;DHT22;53228;51.380;0.098;2024-01-07T08:05:32;2.30;99.90
66422;DHT22;53228;51.380;0.098;2024-01-07T08:07:59;2.30;99.90
66422;DHT22;53228;51.380;0.098;2024-01-07T08:10:27;2.30;99.90
66422;DHT22;53228;51.380;0.098;2024-01-07T08:12:56;2.40;99.90
66422;DHT22;53228;51.380;0.098;2024-01-07T08:15:23;2.40;99.90
66422;DHT22;53228;51.380;0.098;2024-01-07T08:17:53;2.30;99.90
66422;DHT22;53228;51.380;0.098;2024-01-07T08:20:21;2.40;99.90
66422;DHT22;53228;51.380;0.098;2024-01-07T08:22:48;2.40;99.90
66422;DHT22;53228;51.380;0.098;2024-01-07T08:25:17;2.40;99.90
66422;DHT22;53228;51.380;0.098;2024-01-07T08:27:45;2.40;99.90
66422;DHT22;53228;51.380;0.098;2024-01-07T08:30:13;2.50;99.90
66422;DHT22;53228;51.380;0.098;2024-01-07T08:32:41;2.50;99.90
66422;DHT22;53228;51.380;0.098;2024-01-07T08:35:09;2.50;99.90
66422;DHT22;53228;51.380;0.098;2024-01-07T08:37:37;2.60;99.90
66422;DHT22;53228;51.380;0.098;2024-01-07T08:40:05;2.50;99.90
66422;DHT22;53228;51.380;0.098;2024-01-07T08:42:37;2.60;99.90
66422;DHT22;53228;51.380;0.098;2024-01-07T08:45:05;2.60;99.90
66422;DHT22;53228;51.380;0.098;2024-01-07T08:47:33;2.60;99.90
66422;DHT22;53228;51.380;0.098;2024-01-07T08:50:08;2.60;99.90
66422;DHT22;53228;51.380;0.098;2024-01-07T08:52:36;2.70;99.90
66422;DHT22;53228;51.380;0.098;2024-01-07T08:55:04;2.70;99.90
66422;DHT22;53228;51.380;0.098;2024-01-07T08:57:33;2.70;99.90
66422;DHT22;53228;51.380;0.098;2024-01-07T09:00:01;2.70;99.90
66422;DHT22;53228;51.380;0.098;2024-01-07T09:02:29;2.80;99.90
66422;DHT22;53228;51.380;0.098;2024-01-07T09:04:57;2.80;99.90
66422;DHT22;53228;51.380;0.098;2024-01-07T09:07:25;2.80;99.90
66422;DHT22;53228;51.380;0.098;2024-01-07T09:09:53;2.80;99.90
66422;DHT22;53228;51.380;0.098;2024-01-07T09:12:23;2.80;99.90
66422;DHT22;53228;51.380;0.098;2024-01-07T09:14:51;2.90;99.90
66422;DHT22;53228;51.380;0.098;2024-01-07T09:17:18;2.90;99.90
66422;DHT22;53228;51.380;0.098;2024-01-07T09:19:47;2.90;99.90
66422;DHT22;53228;51.380;0.098;2024-01-07T09:22:14;3.00;99.90
66422;DHT22;53228;51.380;0.098;2024-01-07T09:24:42;2.90;99.90
66422;DHT22;53228;51.380;0.098;2024-01-07T09:27:10;3.00;99.90
66422;DHT22;53228;51.380;0.098;2024-01-07T09:29:38;3.10;99.90
66422;DHT22;53228;51.380;0.098;2024-01-07T09:32:06;3.00;99.90
66422;DHT22;53228;51.380;0.098;2024-01-07T09:34:34;3.00;99.90
66422;DHT22;53228;51.380;0.098;2024-01-07T09:37:02;3.10;99.90
66422;DHT22;53228;51.380;0.098;2024-01-07T09:39:30;3.10;99.90
66422;DHT22;53228;51.380;0.098;2024-01-07T09:41:58;3.10;99.90
66422;DHT22;53228;51.380;0.098;2024-01-07T09:44:27;3.20;99.90
66422;DHT22;53228;51.380;0.098;2024-01-07T09:46:55;3.20;99.90
66422;DHT22;53228;51.380;0.098;2024-01-07T09:49:23;3.30;99.90
66422;DHT22;53228;51.380;0.098;2024-01-07T09:51:55;3.30;99.90
66422;DHT22;53228;51.380;0.098;2024-01-07T09:54:27;3.40;99.90
66422;DHT22;53228;51.380;0.098;2024-01-07T09:57:00;3.40;99.90
66422;DHT22;53228;51.380;0.098;2024-01-07T09:59:29;3.50;99.90
66422;DHT22;53228;51.380;0.098;2024-01-07T10:01:57;3.50;99.90
66422;DHT22;53228;51.380;0.098;2024-01-07T10:04:26;0.90;99.90
66422;DHT22;53228;51.380;0.098;2024-01-07T10:06:56;3.50;99.90
66422;DHT22;53228;51.380;0.098;2024-01-07T10:09:28;3.50;99.90
66422;DHT22;53228;51.380;0.098;2024-01-07T10:11:57;3.60;99.90
66422;DHT22;53228;51.380;0.098;2024-01-07T10:14:24;3.60;99.90
66422;DHT22;53228;51.380;0.098;2024-01-07T10:16:54;3.60;99.90
66422;DHT22;53228;51.380;0.098;2024-01-07T10:19:23;3.50;99.90
66422;DHT22;53228;51.380;0.098;2024-01-07T10:22:03;3.60;99.90
66422;DHT22;53228;51.380;0.098;2024-01-07T10:24:39;3.60;99.90
66422;DHT22;53228;51.380;0.098;2024-01-07T10:27:08;3.60;99.90
66422;DHT22;53228;51.380;0.098;2024-01-07T10:29:36;3.60;99.90
66422;DHT22;53228;51.380;0.098;2024-01-07T10:32:06;5.40;99.90
66422;DHT22;53228;51.380;0.098;2024-01-07T10:34:35;3.70;99.90
66422;DHT22;53228;51.380;0.098;2024-01-07T10:37:04;3.70;99.90
66422;DHT22;53228;51.380;0.098;2024-01-07T10:39:33;3.80;99.90
66422;DHT22;53228;51.380;0.098;2024-01-07T10:42:01;3.80;99.90
66422;DHT22;53228;51.380;0.098;2024-01-07T10:44:31;3.90;99.90
66422;DHT22;53228;51.380;0.098;2024-01-07T10:47:00;4.00;99.90
66422;DHT22;53228;51.380;0.098;2024-01-07T10:49:28;4.10;99.90
66422;DHT22;53228;51.380;0.098;2024-01-07T10:52:05;4.30;99.90
66422;DHT22;53228;51.380;0.098;2024-01-07T10:54:35;4.40;99.90
66422;DHT22;53228;51.380;0.098;2024-01-07T10:59:42;4.50;99.90
66422;DHT22;53228;51.380;0.098;2024-01-07T11:02:11;4.50;99.90
66422;DHT22;53228;51.380;0.098;2024-01-07T11:07:41;4.60;99.90
66422;DHT22;53228;51.380;0.098;2024-01-07T11:10:14;4.70;99.90
66422;DHT22;53228;51.380;0.098;2024-01-07T11:12:55;4.70;99.90
66422;DHT22;53228;51.380;0.098;2024-01-07T11:18:22;4.90;99.90
66422;DHT22;53228;51.380;0.098;2024-01-07T11:20:53;5.00;99.90
66422;DHT22;53228;51.380;0.098;2024-01-07T11:26:00;5.20;99.90
66422;DHT22;53228;51.380;0.098;2024-01-07T11:28:49;5.30;99.90
66422;DHT22;53228;51.380;0.098;2024-01-07T11:31:21;5.30;99.90
66422;DHT22;53228;51.380;0.098;2024-01-07T11:33:56;5.40;99.90
66422;DHT22;53228;51.380;0.098;2024-01-07T11:36:26;5.30;99.90
66422;DHT22;53228;51.380;0.098;2024-01-07T11:38:54;5.30;99.90
66422;DHT22;53228;51.380;0.098;2024-01-07T11:41:22;5.40;99.90
66422;DHT22;53228;51.380;0.098;2024-01-07T11:46:22;5.30;99.90
66422;DHT22;53228;51.380;0.098;2024-01-07T11:48:53;5.30;99.90
66422;DHT22;53228;51.380;0.098;2024-01-07T11:51:21;5.30;99.90
66422;DHT22;53228;51.380;0.098;2024-01-07T11:53:49;5.30;99.90
66422;DHT22;53228;51.380;0.098;2024-01-07T11:56:17;5.30;99.90
66422;DHT22;53228;51.380;0.098;2024-01-07T11:58:45;5.30;99.90
66422;DHT22;53228;51.380;0.098;2024-01-07T12:01:16;5.30;99.90
66422;DHT22;53228;51.380;0.098;2024-01-07T12:03:45;5.30;99.90
66422;DHT22;53228;51.380;0.098;2024-01-07T12:06:13;5.30;99.90
66422;DHT22;53228;51.380;0.098;2024-01-07T12:08:44;5.30;99.90
66422;DHT22;53228;51.380;0.098;2024-01-07T12:11:13;5.30;99.90
66422;DHT22;53228;51.380;0.098;2024-01-07T12:13:41;5.30;99.90
66422;DHT22;53228;51.380;0.098;2024-01-07T12:16:10;5.20;99.90
66422;DHT22;53228;51.380;0.098;2024-01-07T12:18:41;5.20;99.90
66422;DHT22;53228;51.380;0.098;2024-01-07T12:21:10;5.20;99.90
66422;DHT22;53228;51.380;0.098;2024-01-07T12:23:38;5.20;99.90
66422;DHT22;53228;51.380;0.098;2024-01-07T12:26:11;5.20;99.90
66422;DHT22;53228;51.380;0.098;2024-01-07T12:28:39;5.20;99.90
66422;DHT22;53228;51.380;0.098;2024-01-07T12:31:07;5.20;99.90
66422;DHT22;53228;51.380;0.098;2024-01-07T12:33:39;5.20;99.90
66422;DHT22;53228;51.380;0.098;2024-01-07T12:38:37;5.20;99.90
66422;DHT22;53228;51.380;0.098;2024-01-07T12:41:08;5.20;99.90
66422;DHT22;53228;51.380;0.098;2024-01-07T12:43:36;5.10;99.90
66422;DHT22;53228;51.380;0.098;2024-01-07T12:46:04;5.10;99.90
66422;DHT22;53228;51.380;0.098;2024-01-07T12:48:33;5.10;99.90
66422;DHT22;53228;51.380;0.098;2024-01-07T12:51:01;5.10;99.90
66422;DHT22;53228;51.380;0.098;2024-01-07T12:53:29;5.10;99.90
66422;DHT22;53228;51.380;0.098;2024-01-07T12:55:57;5.10;99.90
66422;DHT22;53228;51.380;0.098;2024-01-07T12:58:25;5.10;99.90
66422;DHT22;53228;51.380;0.098;2024-01-07T13:00:52;5.00;99.90
66422;DHT22;53228;51.380;0.098;2024-01-07T13:03:20;5.10;99.90
66422;DHT22;53228;51.380;0.098;2024-01-07T13:05:48;5.10;99.90
66422;DHT22;53228;51.380;0.098;2024-01-07T13:08:18;5.10;99.90
66422;DHT22;53228;51.380;0.098;2024-01-07T13:10:46;5.00;99.90
66422;DHT22;53228;51.380;0.098;2024-01-07T13:13:13;5.00;99.90
66422;DHT22;53228;51.380;0.098;2024-01-07T13:15:43;5.00;99.90
66422;DHT22;53228;51.380;0.098;2024-01-07T13:18:11;5.00;99.90
66422;DHT22;53228;51.380;0.098;2024-01-07T13:20:42;5.00;99.90
66422;DHT22;53228;51.380;0.098;2024-01-07T13:23:10;5.00;99.90
66422;DHT22;53228;51.380;0.098;2024-01-07T13:25:37;5.00;99.90
66422;DHT22;53228;51.380;0.098;2024-01-07T13:28:05;4.90;99.90
66422;DHT22;53228;51.380;0.098;2024-01-07T13:30:38;4.90;99.90
66422;DHT22;53228;51.380;0.098;2024-01-07T13:33:07;4.90;99.90
66422;DHT22;53228;51.380;0.098;2024-01-07T13:35:36;4.90;99.90
66422;DHT22;53228;51.380;0.098;2024-01-07T13:38:03;4.80;99.90
66422;DHT22;53228;51.380;0.098;2024-01-07T13:40:31;4.80;99.90
66422;DHT22;53228;51.380;0.098;2024-01-07T13:42:59;4.80;99.90
66422;DHT22;53228;51.380;0.098;2024-01-07T13:45:26;4.80;99.90
66422;DHT22;53228;51.380;0.098;2024-01-07T13:47:55;4.80;99.90
66422;DHT22;53228;51.380;0.098;2024-01-07T13:50:24;4.80;99.90
66422;DHT22;53228;51.380;0.098;2024-01-07T13:52:51;4.80;99.90
66422;DHT22;53228;51.380;0.098;2024-01-07T13:55:19;4.80;99.90
66422;DHT22;53228;51.380;0.098;2024-01-07T13:57:47;4.80;99.90
66422;DHT22;53228;51.380;0.098;2024-01-07T14:00:15;4.70;99.90
66422;DHT22;53228;51.380;0.098;2024-01-07T14:02:46;4.70;99.90
66422;DHT22;53228;51.380;0.098;2024-01-07T14:05:15;4.80;99.90
66422;DHT22;53228;51.380;0.098;2024-01-07T14:07:46;4.70;99.90
66422;DHT22;53228;51.380;0.098;2024-01-07T14:10:14;4.70;99.90
66422;DHT22;53228;51.380;0.098;2024-01-07T14:12:44;4.70;99.90
66422;DHT22;53228;51.380;0.098;2024-01-07T14:15:12;4.70;99.90
66422;DHT22;53228;51.380;0.098;2024-01-07T14:17:40;4.70;99.90
66422;DHT22;53228;51.380;0.098;2024-01-07T14:20:07;4.80;99.90
66422;DHT22;53228;51.380;0.098;2024-01-07T14:22:36;4.70;99.90
66422;DHT22;53228;51.380;0.098;2024-01-07T14:25:04;4.70;99.90
66422;DHT22;53228;51.380;0.098;2024-01-07T14:27:32;4.70;99.90
66422;DHT22;53228;51.380;0.098;2024-01-07T14:30:00;4.70;99.90
66422;DHT22;53228;51.380;0.098;2024-01-07T14:32:28;4.70;99.90
66422;DHT22;53228;51.380;0.098;2024-01-07T14:34:55;4.70;99.90
66422;DHT22;53228;51.380;0.098;2024-01-07T14:37:23;5.00;99.90
66422;DHT22;53228;51.380;0.098;2024-01-07T14:39:51;4.70;99.90
66422;DHT22;53228;51.380;0.098;2024-01-07T14:42:19;4.70;99.90
66422;DHT22;53228;51.380;0.098;2024-01-07T14:44:47;4.70;99.90
66422;DHT22;53228;51.380;0.098;2024-01-07T14:47:18;4.60;99.90
66422;DHT22;53228;51.380;0.098;2024-01-07T14:49:45;4.60;99.90
66422;DHT22;53228;51.380;0.098;2024-01-07T14:52:13;4.70;99.90
66422;DHT22;53228;51.380;0.098;2024-01-07T14:54:41;4.60;99.90
66422;DHT22;53228;51.380;0.098;2024-01-07T14:57:10;4.60;99.90
66422;DHT22;53228;51.380;0.098;2024-01-07T14:59:39;4.60;99.90
66422;DHT22;53228;51.380;0.098;2024-01-07T15:02:07;4.60;99.90
66422;DHT22;53228;51.380;0.098;2024-01-07T15:04:38;4.50;99.90
66422;DHT22;53228;51.380;0.098;2024-01-07T15:07:07;6.40;99.90
66422;DHT22;53228;51.380;0.098;2024-01-07T15:09:38;4.40;99.90
66422;DHT22;53228;51.380;0.098;2024-01-07T15:12:08;4.40;99.90
66422;DHT22;53228;51.380;0.098;2024-01-07T15:14:36;4.40;99.90
66422;DHT22;53228;51.380;0.098;2024-01-07T15:17:04;4.40;99.90
66422;DHT22;53228;51.380;0.098;2024-01-07T15:19:32;4.30;99.90
66422;DHT22;53228;51.380;0.098;2024-01-07T15:22:00;4.40;99.90
66422;DHT22;53228;51.380;0.098;2024-01-07T15:24:27;4.30;99.90
66422;DHT22;53228;51.380;0.098;2024-01-07T15:26:55;4.30;99.90
66422;DHT22;53228;51.380;0.098;2024-01-07T15:29:23;4.30;99.90
66422;DHT22;53228;51.380;0.098;2024-01-07T15:31:51;4.30;99.90
66422;DHT22;53228;51.380;0.098;2024-01-07T15:34:18;4.30;99.90
66422;DHT22;53228;51.380;0.098;2024-01-07T15:36:46;4.30;99.90
66422;DHT22;53228;51.380;0.098;2024-01-07T15:39:14;4.30;99.90
66422;DHT22;53228;51.380;0.098;2024-01-07T15:41:42;4.30;99.90
66422;DHT22;53228;51.380;0.098;2024-01-07T15:44:09;4.20;99.90
66422;DHT22;53228;51.380;0.098;2024-01-07T15:46:37;4.20;99.90
66422;DHT22;53228;51.380;0.098;2024-01-07T15:49:04;4.10;99.90
66422;DHT22;53228;51.380;0.098;2024-01-07T15:51:32;4.00;99.90
66422;DHT22;53228;51.380;0.098;2024-01-07T15:54:00;4.00;99.90
66422;DHT22;53228;51.380;0.098;2024-01-07T15:56:28;3.90;99.90
66422;DHT22;53228;51.380;0.098;2024-01-07T15:58:56;3.90;99.90
66422;DHT22;53228;51.380;0.098;2024-01-07T16:01:24;3.70;99.90
66422;DHT22;53228;51.380;0.098;2024-01-07T16:03:52;3.70;99.90
66422;DHT22;53228;51.380;0.098;2024-01-07T16:06:20;3.60;99.90
66422;DHT22;53228;51.380;0.098;2024-01-07T16:08:48;3.50;99.90